createdAt,value
2019-04-26T00:04:57.367Z,99161.34
2019-04-26T00:10:49.104Z,99174.72
2019-04-26T00:14:12.388Z,99181.89
2019-04-26T00:17:03.639Z,99199.67
2019-04-26T00:22:39.559Z,99192.17
2019-04-26T00:25:12.478Z,99174.22
2019-04-26T00:27:45.258Z,99158.53
2019-04-26T00:33:01.777Z,99168.10
2019-04-26T00:35:53.312Z,99195.02
2019-04-26T00:42:02.012Z,99230.38
2019-04-26T00:44:33.837Z,99194.27
2019-04-26T00:47:24.921Z,99194.27
2019-04-26T00:49:58.139Z,99178.39
2019-04-26T00:52:30.327Z,99181.77
2019-04-26T00:55:02.443Z,99195.70
2019-04-26T00:57:53.729Z,99212.91
2019-04-26T01:00:26.071Z,99224.70
2019-04-26T01:03:18.532Z,99247.37
2019-04-26T01:09:16.016Z,99250.59
2019-04-26T01:11:48.524Z,99253.47
2019-04-26T01:14:20.473Z,99253.87
2019-04-26T01:17:11.447Z,99234.91
2019-04-26T01:20:02.682Z,99240.56
2019-04-26T01:29:08.953Z,99237.59
2019-04-26T01:32:12.029Z,99238.62
2019-04-26T01:37:34.449Z,99222.52
2019-04-26T01:46:24.977Z,99222.55
2019-04-26T01:52:33.943Z,99228.20
2019-04-26T01:55:16.917Z,99217.77
2019-04-26T01:58:27.909Z,99217.77
2019-04-26T02:01:18.940Z,99217.67
2019-04-26T02:04:29.862Z,99226.55
2019-04-26T02:07:39.745Z,99220.67
2019-04-26T02:10:13.059Z,99211.38
2019-04-26T02:15:50.454Z,99231.50
2019-04-26T02:18:41.254Z,99234.27
2019-04-26T02:21:31.898Z,99236.45
2019-04-26T02:24:34.858Z,99245.92
2019-04-26T02:35:55.289Z,99266.81
2019-04-26T02:38:27.893Z,99270.08
2019-04-26T02:40:59.693Z,99281.35
2019-04-26T02:43:50.506Z,99280.49
2019-04-26T02:49:40.766Z,99265.86
2019-04-26T02:52:46.443Z,99284.61
2019-04-26T02:56:04.550Z,99282.34
2019-04-26T02:59:09.497Z,99280.92
2019-04-26T03:02:11.730Z,99289.80
2019-04-26T03:04:43.941Z,99304.83
2019-04-26T03:07:53.609Z,99306.95
2019-04-26T03:17:26.686Z,99295.72
2019-04-26T03:20:32.585Z,99289.92
2019-04-26T03:23:59.427Z,99294.84
2019-04-26T03:27:01.436Z,99294.84
2019-04-26T03:30:22.637Z,99313.80
2019-04-26T03:33:25.243Z,99315.94
2019-04-26T03:36:33.888Z,99310.15
2019-04-26T03:39:44.477Z,99314.48
2019-04-26T03:46:04.693Z,99278.77
2019-04-26T03:49:10.515Z,99276.45
2019-04-26T03:52:19.488Z,99282.53
2019-04-26T03:55:31.021Z,99281.83
2019-04-26T03:58:13.835Z,99283.04
2019-04-26T04:03:55.355Z,99292.00
2019-04-26T04:07:03.454Z,99295.71
2019-04-26T04:12:57.882Z,99293.52
2019-04-26T04:15:59.353Z,99291.86
2019-04-26T04:19:02.607Z,99293.08
2019-04-26T04:22:04.942Z,99293.17
2019-04-26T04:24:57.950Z,99311.67
2019-04-26T04:28:05.345Z,99308.55
2019-04-26T04:31:03.924Z,99312.66
2019-04-26T04:34:13.740Z,99318.64
2019-04-26T04:40:30.844Z,99323.23
2019-04-26T04:43:33.674Z,99319.06
2019-04-26T04:47:02.343Z,99318.01
2019-04-26T04:53:17.841Z,99326.59
2019-04-26T04:56:23.521Z,99325.18
2019-04-26T04:59:13.499Z,99330.23
2019-04-26T05:06:07.714Z,99331.40
2019-04-26T05:08:59.553Z,99324.77
2019-04-26T05:12:08.451Z,99342.23
2019-04-26T05:18:53.071Z,99346.39
2019-04-26T05:28:53.794Z,99359.22
2019-04-26T05:31:57.860Z,99363.11
2019-04-26T05:41:31.984Z,99378.11
2019-04-26T05:48:09.300Z,99388.41
2019-04-26T05:51:32.872Z,99388.41
2019-04-26T05:54:31.361Z,99390.77
2019-04-26T06:01:31.771Z,99388.41
2019-04-26T06:18:07.486Z,99427.92
2019-04-26T06:24:56.377Z,99445.78
2019-04-26T06:31:30.302Z,99452.37
2019-04-26T06:34:39.341Z,99429.14
2019-04-26T06:37:42.489Z,99445.27
2019-04-26T06:40:55.921Z,99448.97
2019-04-26T06:44:07.731Z,99441.55
2019-04-26T06:47:48.249Z,99443.30
2019-04-26T06:53:43.045Z,99440.40
2019-04-26T06:56:53.616Z,99434.31
2019-04-26T06:59:47.952Z,99429.05
2019-04-26T07:02:59.726Z,99428.06
2019-04-26T07:08:58.097Z,99451.40
2019-04-26T07:12:26.738Z,99473.84
2019-04-26T07:15:38.641Z,99463.92
2019-04-26T07:19:04.221Z,99469.36
2019-04-26T07:22:35.537Z,99479.27
2019-04-26T07:26:14.111Z,99479.03
2019-04-26T07:28:56.256Z,99462.67
2019-04-26T07:39:10.511Z,99507.81
2019-04-26T07:49:19.967Z,99517.88
2019-04-26T07:52:51.329Z,99521.50
2019-04-26T07:55:46.415Z,99528.30
2019-04-26T07:58:55.518Z,99524.62
2019-04-26T08:05:04.285Z,99522.86
2019-04-26T08:08:08.633Z,99529.04
2019-04-26T08:11:11.549Z,99529.04
2019-04-26T08:14:10.654Z,99537.39
2019-04-26T08:17:41.227Z,99528.89
2019-04-26T08:20:51.659Z,99523.93
2019-04-26T08:27:21.338Z,99519.39
2019-04-26T08:36:18.364Z,99530.66
2019-04-26T08:46:02.864Z,99545.34
2019-04-26T08:51:22.952Z,99567.28
2019-04-26T08:54:14.912Z,99567.30
2019-04-26T08:57:17.662Z,99569.05
2019-04-26T09:03:17.318Z,99569.06
2019-04-26T09:06:26.921Z,99574.32
2019-04-26T09:12:22.313Z,99566.70
2019-04-26T09:14:52.700Z,99586.73
2019-04-26T09:17:42.458Z,99593.64
2019-04-26T09:20:27.755Z,99595.02
2019-04-26T09:23:26.033Z,99591.38
2019-04-26T09:26:03.519Z,99596.45
2019-04-26T09:29:14.223Z,99599.42
2019-04-26T09:32:24.212Z,99599.45
2019-04-26T09:35:35.906Z,99598.63
2019-04-26T09:38:07.570Z,99608.34
2019-04-26T09:41:00.642Z,99612.77
2019-04-26T09:44:10.070Z,99601.62
2019-04-26T09:47:19.852Z,99606.66
2019-04-26T09:50:28.646Z,99612.13
2019-04-26T09:56:40.901Z,99614.20
2019-04-26T09:59:36.335Z,99608.52
2019-04-26T10:02:19.018Z,99616.61
2019-04-26T10:05:13.600Z,99614.21
2019-04-26T10:08:13.083Z,99609.98
2019-04-26T10:11:14.761Z,99602.16
2019-04-26T10:14:08.650Z,99600.40
2019-04-26T10:18:37.117Z,99600.84
2019-04-26T10:20:30.894Z,99593.59
2019-04-26T10:26:08.608Z,99640.27
2019-04-26T10:29:21.804Z,99640.27
2019-04-26T10:32:10.475Z,99638.08
2019-04-26T10:35:00.433Z,99639.00
2019-04-26T10:38:11.527Z,99635.48
2019-04-26T10:44:16.990Z,99642.27
2019-04-26T10:50:09.664Z,99644.23
2019-04-26T10:53:20.031Z,99649.68
2019-04-26T10:56:29.636Z,99649.58
2019-04-26T10:59:39.814Z,99642.27
2019-04-26T11:05:24.556Z,99631.79
2019-04-26T11:11:44.564Z,99623.28
2019-04-26T11:14:35.342Z,99616.88
2019-04-26T11:20:45.501Z,99623.12
2019-04-26T11:26:16.791Z,99626.75
2019-04-26T11:31:54.218Z,99628.03
2019-04-26T11:34:44.930Z,99623.70
2019-04-26T11:37:17.929Z,99617.47
2019-04-26T11:42:51.230Z,99610.27
2019-04-26T11:45:45.422Z,99608.82
2019-04-26T11:48:14.941Z,99624.27
2019-04-26T11:50:51.794Z,99633.28
2019-04-26T11:53:21.742Z,99624.08
2019-04-26T11:59:21.443Z,99631.60
2019-04-26T12:05:23.094Z,99634.39
2019-04-26T12:08:15.610Z,99632.75
2019-04-26T12:10:46.368Z,99643.79
2019-04-26T12:13:59.510Z,99646.12
2019-04-26T12:16:51.304Z,99635.17
2019-04-26T12:22:43.270Z,99654.43
2019-04-26T12:25:48.897Z,99658.92
2019-04-26T12:31:56.446Z,99657.17
2019-04-26T12:34:29.160Z,99644.91
2019-04-26T12:36:59.945Z,99665.67
2019-04-26T12:42:58.904Z,99665.00
2019-04-26T12:45:51.456Z,99663.25
2019-04-26T12:48:52.916Z,99664.54
2019-04-26T12:51:14.204Z,99676.92
2019-04-26T12:56:55.310Z,99679.05
2019-04-26T12:59:47.801Z,99679.88
2019-04-26T13:05:22.168Z,99683.31
2019-04-26T13:07:54.763Z,99669.77
2019-04-26T13:10:46.127Z,99659.42
2019-04-26T13:13:36.068Z,99674.45
2019-04-26T13:16:45.664Z,99671.13
2019-04-26T13:19:19.859Z,99667.63
2019-04-26T13:25:26.272Z,99675.84
2019-04-26T13:28:10.866Z,99688.55
2019-04-26T13:40:13.781Z,99688.80
2019-04-26T13:43:26.936Z,99684.34
2019-04-26T13:46:38.311Z,99666.94
2019-04-26T13:49:31.197Z,99670.75
2019-04-26T13:52:22.307Z,99665.73
2019-04-26T13:55:18.304Z,99673.07
2019-04-26T13:58:27.037Z,99671.49
2019-04-26T14:01:01.204Z,99671.49
2019-04-26T14:04:06.906Z,99674.45
2019-04-26T14:07:02.890Z,99683.75
2019-04-26T14:12:35.695Z,99688.77
2019-04-26T14:15:43.290Z,99690.80
2019-04-26T14:18:00.235Z,99686.92
2019-04-26T14:20:54.775Z,99684.59
2019-04-26T14:24:01.636Z,99679.75
2019-04-26T14:26:56.560Z,99669.07
2019-04-26T14:29:48.813Z,99669.09
2019-04-26T14:32:43.735Z,99672.76
2019-04-26T14:38:28.007Z,99667.30
2019-04-26T14:41:22.503Z,99679.00
2019-04-26T14:44:15.622Z,99684.98
2019-04-26T14:47:22.404Z,99682.06
2019-04-26T14:50:14.191Z,99683.95
2019-04-26T14:52:46.167Z,99678.84
2019-04-26T14:55:21.320Z,99679.77
2019-04-26T14:58:13.065Z,99679.76
2019-04-26T15:04:07.776Z,99684.98
2019-04-26T15:10:53.024Z,99699.47
2019-04-26T15:13:54.402Z,99696.73
2019-04-26T15:17:09.609Z,99698.52
2019-04-26T15:20:16.805Z,99693.11
2019-04-26T15:30:00.707Z,99706.61
2019-04-26T15:32:53.045Z,99689.47
2019-04-26T15:35:59.500Z,99703.70
2019-04-26T15:39:08.010Z,99703.38
2019-04-26T15:42:29.215Z,99701.58
2019-04-26T15:45:59.053Z,99688.66
2019-04-26T15:49:13.130Z,99693.47
2019-04-26T15:52:36.693Z,99698.42
2019-04-26T16:01:32.510Z,99704.36
2019-04-26T16:04:35.423Z,99699.02
2019-04-26T16:10:19.250Z,99689.33
2019-04-26T16:13:21.416Z,99695.65
2019-04-26T16:16:04.881Z,99704.56
2019-04-26T16:18:57.223Z,99705.14
2019-04-26T16:21:28.274Z,99705.48
2019-04-26T16:30:42.865Z,99712.28
2019-04-26T16:33:45.704Z,99701.97
2019-04-26T16:36:27.902Z,99704.03
2019-04-26T16:42:39.607Z,99705.42
2019-04-26T16:48:17.338Z,99712.58
2019-04-26T16:50:49.465Z,99704.75
2019-04-26T16:56:43.952Z,99708.94
2019-04-26T16:59:46.602Z,99705.53
2019-04-26T17:02:52.726Z,99705.21
2019-04-26T17:05:56.754Z,99709.22
2019-04-26T17:12:02.567Z,99721.60
2019-04-26T17:14:34.221Z,99721.60
2019-04-26T17:19:48.293Z,99733.38
2019-04-26T17:22:44.491Z,99729.09
2019-04-26T17:31:39.917Z,99739.09
2019-04-26T17:34:17.066Z,99739.09
2019-04-26T17:36:50.387Z,99726.52
2019-04-26T17:39:47.398Z,99723.72
2019-04-26T17:42:16.523Z,99727.79
2019-04-26T17:54:26.601Z,99728.38
2019-04-26T17:57:25.414Z,99727.66
2019-04-26T17:59:36.857Z,99726.85
2019-04-26T18:02:24.211Z,99729.35
2019-04-26T18:04:43.241Z,99724.03
2019-04-26T18:22:36.531Z,99737.09
2019-04-26T18:25:14.708Z,99758.62
2019-04-26T18:28:08.702Z,99759.67
2019-04-26T18:31:00.205Z,99763.03
2019-04-26T18:34:01.811Z,99762.72
2019-04-26T18:40:16.690Z,99770.14
2019-04-26T18:52:08.796Z,99781.95
2019-04-26T18:55:21.344Z,99789.50
2019-04-26T18:58:10.316Z,99782.09
2019-04-26T19:04:12.821Z,99798.53
2019-04-26T19:06:31.933Z,99797.13
2019-04-26T19:15:41.726Z,99801.45
2019-04-26T19:18:33.305Z,99806.75
2019-04-26T19:21:32.306Z,99808.84
2019-04-26T19:24:27.867Z,99806.18
2019-04-26T19:30:50.715Z,99786.58
2019-04-26T19:40:02.894Z,99801.84
2019-04-26T19:48:55.578Z,99808.25
2019-04-26T19:52:05.164Z,99812.32
2019-04-26T19:54:51.245Z,99811.41
2019-04-26T19:57:25.440Z,99803.04
2019-04-26T20:00:26.973Z,99816.80
2019-04-26T20:03:17.714Z,99820.45
2019-04-26T20:06:07.112Z,99829.94
2019-04-26T20:12:07.706Z,99820.11
2019-04-26T20:14:47.278Z,99803.58
2019-04-26T20:20:32.237Z,99823.08
2019-04-26T20:25:52.752Z,99825.67
2019-04-26T20:28:43.970Z,99832.66
2019-04-26T20:44:48.107Z,99826.58
2019-04-26T20:50:00.608Z,99837.75
2019-04-26T20:55:36.909Z,99836.80
2019-04-26T20:58:08.796Z,99833.05
2019-04-26T21:04:02.036Z,99832.94
2019-04-26T21:06:53.545Z,99824.92
2019-04-26T21:09:43.519Z,99814.70
2019-04-26T21:12:17.441Z,99815.48
2019-04-26T21:15:06.884Z,99808.47
2019-04-26T21:17:36.809Z,99809.94
2019-04-26T21:23:15.458Z,99794.67
2019-04-26T21:28:54.269Z,99800.55
2019-04-26T21:32:02.010Z,99798.66
2019-04-26T21:34:50.757Z,99793.06
2019-04-26T21:37:45.498Z,99791.66
2019-04-26T21:40:46.889Z,99797.91
2019-04-26T21:43:29.464Z,99791.66
2019-04-26T21:46:36.918Z,99803.82
2019-04-26T21:49:25.875Z,99803.59
2019-04-26T21:52:07.377Z,99814.69
2019-04-26T21:54:57.286Z,99814.69
2019-04-26T21:57:28.419Z,99819.59
2019-04-26T22:00:38.338Z,99831.35
2019-04-26T22:03:14.324Z,99835.77
2019-04-26T22:06:00.656Z,99837.56
2019-04-26T22:11:44.434Z,99828.95
2019-04-26T22:17:43.407Z,99831.42
2019-04-26T22:20:33.826Z,99831.30
2019-04-26T22:23:43.662Z,99832.30
2019-04-26T22:26:48.108Z,99835.84
2019-04-26T22:29:51.907Z,99836.12
2019-04-26T22:32:22.995Z,99806.14
2019-04-26T22:35:20.304Z,99824.41
2019-04-26T22:37:49.394Z,99833.76
2019-04-26T22:40:41.035Z,99832.59
2019-04-26T22:43:31.588Z,99835.03
2019-04-26T22:46:47.294Z,99835.59
2019-04-26T22:49:14.441Z,99839.00
2019-04-26T22:54:55.779Z,99837.89
2019-04-26T23:03:20.569Z,99834.63
2019-04-26T23:06:15.169Z,99833.20
2019-04-26T23:09:07.362Z,99836.98
2019-04-26T23:18:08.131Z,99832.40
2019-04-26T23:21:03.559Z,99836.66
2019-04-26T23:23:47.150Z,99829.34
2019-04-26T23:26:37.528Z,99829.34
2019-04-26T23:35:43.763Z,99829.74
2019-04-26T23:38:34.517Z,99830.17
2019-04-26T23:41:06.906Z,99820.09
2019-04-26T23:46:36.917Z,99822.97
2019-04-26T23:49:30.430Z,99828.45
2019-04-26T23:52:39.102Z,99833.59
2019-04-26T23:55:10.275Z,99829.91
2019-04-26T23:57:41.105Z,99830.28
